Time;durP1;ratioP1;P1;durP2;ratioP2;P2;SDS_P1;SDS_P2;PMS_P1;PMS_P2;Temp;Humidity;BMP_temperature;BMP_pressure;BME280_temperature;BME280_humidity;BME280_pressure;Samples;Min_cycle;Max_cycle;Signal;HPM_P1;HPM_P2
2022/05/26 00:01:45;;;;;;;1.40;0.40;;;;;;;17.00;52.73;97596.78;4852754;29;20097;-78
2022/05/26 00:04:10;;;;;;;1.40;0.50;;;;;;;16.97;53.56;97602.56;4846758;28;20653;-78
2022/05/26 00:06:36;;;;;;;1.27;0.40;;;;;;;16.92;53.17;97602.63;4876155;28;20300;-78
2022/05/26 00:09:01;;;;;;;2.05;0.65;;;;;;;16.94;53.09;97604.97;4877065;28;20689;-78
2022/05/26 00:11:31;;;;;;;0.93;0.30;;;;;;;16.84;52.83;97604.00;4862030;28;20683;-78
2022/05/26 00:13:57;;;;;;;1.25;0.30;;;;;;;16.85;53.08;97604.78;4861653;28;20211;-78
2022/05/26 00:16:23;;;;;;;0.93;0.30;;;;;;;16.82;52.94;97607.91;4876344;28;20291;-78
2022/05/26 00:18:49;;;;;;;0.43;0.30;;;;;;;16.81;52.97;97606.34;4845558;28;20167;-78
2022/05/26 00:21:15;;;;;;;0.82;0.70;;;;;;;16.77;53.40;97603.47;4878039;28;20455;-78
2022/05/26 00:23:41;;;;;;;1.88;0.82;;;;;;;16.75;53.51;97605.59;4876415;28;20351;-78
2022/05/26 00:26:06;;;;;;;1.73;0.40;;;;;;;16.71;53.83;97595.88;4880095;28;20274;-78
2022/05/26 00:28:32;;;;;;;1.55;0.45;;;;;;;16.65;53.49;97603.81;4891984;28;20191;-79
2022/05/26 00:30:58;;;;;;;0.68;0.60;;;;;;;16.65;53.94;97610.91;4879985;28;20209;-78
2022/05/26 00:33:23;;;;;;;1.50;0.50;;;;;;;16.63;54.14;97603.31;4854667;29;20770;-78
2022/05/26 00:35:49;;;;;;;1.52;0.30;;;;;;;16.59;53.90;97612.81;4869682;28;20343;-78
2022/05/26 00:38:16;;;;;;;0.43;0.30;;;;;;;16.67;54.22;97611.44;4871047;28;20196;-78
2022/05/26 00:40:43;;;;;;;0.65;0.35;;;;;;;16.62;53.81;97612.25;4871189;28;20658;-78
2022/05/26 00:43:08;;;;;;;1.52;0.77;;;;;;;16.69;53.75;97625.09;4871863;28;20169;-78
2022/05/26 00:45:39;;;;;;;0.57;0.30;;;;;;;16.61;53.98;97631.72;4873219;28;20264;-78
2022/05/26 00:48:11;;;;;;;0.57;0.30;;;;;;;16.53;53.94;97619.13;4873092;28;20196;-78
2022/05/26 00:50:46;;;;;;;1.27;0.30;;;;;;;16.54;54.11;97623.34;4857096;28;20634;-78
2022/05/26 00:53:15;;;;;;;0.50;0.38;;;;;;;16.58;53.97;97621.72;4839504;29;20187;-78
2022/05/26 00:55:47;;;;;;;0.70;0.50;;;;;;;16.50;53.97;97626.78;4838031;29;20224;-79
2022/05/26 00:58:24;;;;;;;0.80;0.47;;;;;;;16.50;54.35;97626.78;4870728;29;20205;-78
2022/05/26 01:00:50;;;;;;;0.38;0.30;;;;;;;16.63;54.14;97624.34;4839837;29;20212;-78
2022/05/26 01:03:30;;;;;;;0.65;0.30;;;;;;;16.53;54.35;97619.13;4902556;28;20254;-77
2022/05/26 01:06:16;;;;;;;0.88;0.30;;;;;;;16.57;54.77;97625.44;4909612;28;20376;-78
2022/05/26 01:09:05;;;;;;;1.23;0.40;;;;;;;16.51;54.02;97626.50;4886191;28;20226;-79
2022/05/26 01:11:36;;;;;;;0.38;0.35;;;;;;;16.65;53.45;97621.44;4877892;28;20192;-78
2022/05/26 01:14:04;;;;;;;0.98;0.35;;;;;;;16.69;53.37;97619.03;4857321;28;20570;-78
2022/05/26 01:16:33;;;;;;;1.85;0.55;;;;;;;16.76;53.54;97609.00;4873586;28;20239;-78
2022/05/26 01:19:24;;;;;;;1.27;0.52;;;;;;;16.60;54.38;97624.09;4889264;28;20366;-78
2022/05/26 01:22:25;;;;;;;0.68;0.30;;;;;;;16.59;54.64;97619.91;4887704;28;20616;-78
2022/05/26 01:25:02;;;;;;;0.90;0.32;;;;;;;16.60;54.33;97624.09;4878833;28;20216;-78
2022/05/26 01:27:37;;;;;;;3.33;0.82;;;;;;;16.70;54.37;97628.50;4872644;28;20577;-78
2022/05/26 01:30:44;;;;;;;1.05;0.28;;;;;;;16.61;53.98;97629.09;4871430;28;20276;-78
2022/05/26 01:33:25;;;;;;;1.40;0.20;;;;;;;16.60;53.89;97624.88;4859513;28;20222;-78
2022/05/26 01:36:13;;;;;;;1.15;0.30;;;;;;;16.70;54.14;97621.41;4864086;28;20193;-78
2022/05/26 01:38:51;;;;;;;0.70;0.22;;;;;;;16.81;53.74;97624.75;4856572;28;20112;-78
2022/05/26 01:41:52;;;;;;;1.63;0.57;;;;;;;16.73;54.07;97631.38;4890542;28;20216;-78
2022/05/26 01:44:42;;;;;;;3.42;1.05;;;;;;;16.81;54.10;97616.84;4855989;28;20204;-77
2022/05/26 01:47:39;;;;;;;0.70;0.40;;;;;;;16.69;54.41;97621.66;4874155;28;20414;-79
2022/05/26 01:50:40;;;;;;;2.03;0.32;;;;;;;16.75;53.80;97618.75;4855718;28;20193;-79
2022/05/26 01:53:14;;;;;;;1.27;0.30;;;;;;;16.84;53.15;97625.03;4877840;28;20192;-78
2022/05/26 01:56:09;;;;;;;1.30;0.30;;;;;;;16.75;53.21;97618.75;4885110;28;20432;-78
2022/05/26 01:58:44;;;;;;;1.35;0.30;;;;;;;16.82;53.69;97623.69;4862432;29;20239;-78
2022/05/26 02:01:16;;;;;;;0.93;0.40;;;;;;;16.90;53.55;97633.66;4854288;29;20337;-79
2022/05/26 02:03:44;;;;;;;0.52;0.30;;;;;;;16.95;54.16;97623.13;4840729;29;20377;-78
2022/05/26 02:06:09;;;;;;;0.90;0.40;;;;;;;17.00;54.46;97627.56;4852768;29;20651;-78
2022/05/26 02:08:40;;;;;;;0.40;0.30;;;;;;;16.86;54.53;97627.38;4869766;29;20257;-78
2022/05/26 02:11:12;;;;;;;0.43;0.30;;;;;;;16.84;54.68;97621.59;4838236;29;20185;-78
2022/05/26 02:14:02;;;;;;;0.57;0.32;;;;;;;16.75;54.84;97615.34;4852643;29;20177;-78
2022/05/26 02:16:34;;;;;;;0.68;0.30;;;;;;;16.81;53.96;97625.56;4874188;28;20246;-78
2022/05/26 02:19:09;;;;;;;1.58;0.30;;;;;;;16.72;54.66;97623.75;4906530;28;20728;-78
2022/05/26 02:21:49;;;;;;;0.60;0.50;;;;;;;16.70;54.84;97623.25;4875999;28;20427;-78
2022/05/26 02:24:42;;;;;;;1.05;0.40;;;;;;;16.64;55.17;97631.16;4875284;28;20176;-78
2022/05/26 02:27:07;;;;;;;1.35;0.30;;;;;;;16.87;54.86;97630.81;4889715;28;20218;-78
2022/05/26 02:32:19;;;;;;;0.60;0.40;;;;;;;16.93;52.57;97627.88;4893705;28;20163;-79
2022/05/26 02:34:46;;;;;;;2.05;0.40;;;;;;;16.93;53.16;97627.88;4899941;28;20359;-78
2022/05/26 02:37:12;;;;;;;1.20;0.38;;;;;;;16.98;52.85;97629.66;4891066;28;20507;-78
2022/05/26 02:39:37;;;;;;;1.20;0.35;;;;;;;17.06;52.55;97625.66;4874697;28;20334;-78
2022/05/26 02:42:03;;;;;;;0.52;0.35;;;;;;;17.00;52.46;97627.56;4890168;28;20191;-78
2022/05/26 02:44:31;;;;;;;1.67;0.40;;;;;;;16.84;52.88;97627.66;4891442;28;20285;-79
2022/05/26 02:47:25;;;;;;;1.95;0.40;;;;;;;16.71;53.36;97633.50;4860332;28;20334;-78
2022/05/26 02:49:53;;;;;;;0.60;0.38;;;;;;;16.77;53.80;97629.75;4889943;28;20369;-78
2022/05/26 02:52:21;;;;;;;0.65;0.30;;;;;;;16.58;54.29;97636.72;4888959;28;20285;-78
2022/05/26 02:55:12;;;;;;;2.08;0.30;;;;;;;16.47;54.70;97641.25;4872260;28;20112;-78
2022/05/26 02:57:59;;;;;;;0.50;0.30;;;;;;;16.37;54.65;97636.84;4876312;28;20350;-78
2022/05/26 03:00:35;;;;;;;3.95;0.70;;;;;;;16.50;54.87;97645.19;4892990;28;20219;-78
2022/05/26 03:03:09;;;;;;;0.52;0.40;;;;;;;16.58;55.20;97645.41;4875823;28;20722;-78
2022/05/26 03:06:02;;;;;;;1.15;0.73;;;;;;;16.43;56.01;97637.59;4875233;28;20744;-79
2022/05/26 03:08:28;;;;;;;1.55;0.45;;;;;;;16.55;55.82;97638.03;4875020;28;20233;-78
2022/05/26 03:11:05;;;;;;;0.70;0.40;;;;;;;16.44;56.22;97639.16;4874511;28;20211;-78
2022/05/26 03:13:31;;;;;;;0.88;0.55;;;;;;;16.60;55.89;97640.66;4874278;28;20305;-78
2022/05/26 03:15:56;;;;;;;2.15;0.50;;;;;;;16.57;55.86;97635.16;4874474;28;20606;-78
2022/05/26 03:18:22;;;;;;;0.50;0.30;;;;;;;16.56;55.36;97644.88;4874951;28;20254;-78
2022/05/26 03:20:47;;;;;;;1.95;0.30;;;;;;;16.62;55.93;97648.25;4891877;28;20200;-79
2022/05/26 03:23:13;;;;;;;1.95;0.50;;;;;;;16.62;55.57;97649.06;4875110;28;20198;-79
2022/05/26 03:25:39;;;;;;;1.15;0.40;;;;;;;16.64;55.69;97646.94;4874170;28;20404;-78
2022/05/26 03:28:05;;;;;;;1.85;0.32;;;;;;;16.70;55.33;97641.66;4859523;28;20379;-78
2022/05/26 03:30:30;;;;;;;0.32;0.32;;;;;;;16.67;55.19;97645.59;4859590;28;20432;-78
2022/05/26 03:32:55;;;;;;;1.80;0.32;;;;;;;16.70;55.39;97645.06;4874224;28;20629;-78
2022/05/26 03:40:56;;;;;;;0.80;0.22;;;;;;;16.70;55.92;97642.44;4888360;28;20203;-78
2022/05/26 03:43:28;;;;;;;1.90;0.40;;;;;;;16.59;56.22;97649.59;4858597;28;20417;-78
2022/05/26 03:45:53;;;;;;;1.30;0.75;;;;;;;16.66;55.65;97660.59;4875445;28;20138;-78
2022/05/26 03:48:19;;;;;;;1.00;0.47;;;;;;;16.58;56.07;97652.50;4843637;28;20558;-78
2022/05/26 03:50:44;;;;;;;0.82;0.38;;;;;;;16.53;56.43;97650.69;4873642;28;20156;-78
2022/05/26 03:53:10;;;;;;;2.10;0.40;;;;;;;16.60;56.61;97656.41;4870633;28;20173;-78
2022/05/26 03:55:35;;;;;;;1.20;0.60;;;;;;;16.67;56.84;97654.31;4881300;28;20195;-78
2022/05/26 03:58:03;;;;;;;1.80;0.88;;;;;;;16.69;56.69;97653.22;4852475;29;20266;-78
2022/05/26 04:00:29;;;;;;;1.48;0.50;;;;;;;16.71;56.33;97662.44;4855951;29;20206;-79
2022/05/26 04:02:55;;;;;;;0.85;0.40;;;;;;;16.79;56.00;97661.84;4868680;28;20216;-78
2022/05/26 04:05:20;;;;;;;0.60;0.50;;;;;;;16.81;55.92;97666.81;4890339;28;20187;-78
2022/05/26 04:07:45;;;;;;;1.58;0.47;;;;;;;16.91;55.83;97666.00;4873161;28;20291;-79
2022/05/26 04:10:12;;;;;;;1.27;0.50;;;;;;;16.98;55.27;97672.56;4890993;28;20236;-78
2022/05/26 04:12:38;;;;;;;0.80;0.50;;;;;;;17.01;55.48;97676.47;4842841;28;20169;-78
2022/05/26 04:15:05;;;;;;;0.70;0.30;;;;;;;16.99;54.72;97674.09;4858581;28;20254;-78
2022/05/26 04:17:31;;;;;;;3.15;0.43;;;;;;;17.04;55.30;97681.19;4857510;28;20291;-78
2022/05/26 04:19:56;;;;;;;1.20;0.45;;;;;;;17.00;55.72;97674.91;4858070;28;20635;-78
2022/05/26 04:22:23;;;;;;;1.63;0.70;;;;;;;16.89;55.69;97682.06;4891158;28;20282;-78
2022/05/26 04:24:56;;;;;;;1.38;0.40;;;;;;;16.74;55.63;97680.28;4873201;28;20165;-78
2022/05/26 04:27:25;;;;;;;2.22;0.52;;;;;;;16.89;55.97;97689.19;4870979;28;20238;-78
2022/05/26 04:29:52;;;;;;;2.08;0.40;;;;;;;16.90;55.97;97683.66;4869706;29;20297;-78
2022/05/26 04:32:18;;;;;;;0.70;0.45;;;;;;;16.93;56.02;97692.81;4854144;29;20204;-79
2022/05/26 04:34:48;;;;;;;1.13;0.35;;;;;;;16.97;55.90;97694.66;4854060;29;20223;-78
2022/05/26 04:37:16;;;;;;;1.67;0.75;;;;;;;17.06;55.21;97691.44;4873996;28;20259;-78
2022/05/26 04:39:41;;;;;;;1.45;0.40;;;;;;;17.10;55.33;97695.09;4873328;28;20288;-79
2022/05/26 04:42:07;;;;;;;2.15;0.60;;;;;;;17.08;55.49;97699.84;4857911;28;20281;-79
2022/05/26 04:44:37;;;;;;;2.22;0.52;;;;;;;17.05;55.04;97693.28;4872995;28;20279;-78
2022/05/26 04:47:03;;;;;;;2.85;0.50;;;;;;;17.18;54.61;97695.28;4858163;28;20286;-78
2022/05/26 04:49:29;;;;;;;1.08;0.50;;;;;;;17.27;54.79;97698.13;4873700;28;20591;-78
2022/05/26 04:51:55;;;;;;;1.75;0.50;;;;;;;17.32;55.17;97697.31;4872679;28;20252;-78
2022/05/26 04:54:20;;;;;;;2.05;0.40;;;;;;;17.26;54.65;97693.16;4854049;29;20268;-79
2022/05/26 04:56:46;;;;;;;0.68;0.40;;;;;;;17.35;54.31;97691.50;4853601;29;20318;-80
2022/05/26 04:59:11;;;;;;;2.15;0.57;;;;;;;17.54;54.03;97694.22;4853399;29;20632;-78
2022/05/26 05:01:37;;;;;;;0.88;0.47;;;;;;;17.49;54.00;97700.31;4855071;28;20173;-78
2022/05/26 05:04:02;;;;;;;0.93;0.68;;;;;;;17.53;54.19;97703.19;4906942;28;20179;-78
2022/05/26 05:06:28;;;;;;;2.50;0.50;;;;;;;17.57;54.16;97698.94;4871660;28;20578;-79
2022/05/26 05:08:53;;;;;;;0.50;0.50;;;;;;;17.64;53.91;97706.53;4855490;28;20208;-78
2022/05/26 05:11:19;;;;;;;1.38;0.40;;;;;;;17.74;53.58;97709.84;4871620;28;20294;-78
2022/05/26 05:13:45;;;;;;;1.30;0.68;;;;;;;17.63;54.26;97710.22;4871562;28;20299;-78
2022/05/26 05:16:18;;;;;;;0.63;0.38;;;;;;;17.58;54.72;97713.66;4872416;28;20633;-78
2022/05/26 05:18:45;;;;;;;1.65;0.60;;;;;;;17.66;54.34;97714.94;4870922;28;20208;-78
2022/05/26 05:21:15;;;;;;;1.65;0.30;;;;;;;17.75;54.01;97719.34;4871266;28;20286;-79
2022/05/26 05:23:45;;;;;;;1.80;0.70;;;;;;;17.75;53.65;97724.59;4871310;28;20294;-78
2022/05/26 05:26:14;;;;;;;1.20;0.50;;;;;;;17.79;53.89;97722.97;4872044;28;20199;-78
2022/05/26 05:28:42;;;;;;;0.70;0.47;;;;;;;18.00;53.49;97736.00;4871031;28;20138;-79
2022/05/26 05:31:11;;;;;;;0.85;0.65;;;;;;;17.92;54.11;97733.94;4871285;28;20295;-77
2022/05/26 05:33:47;;;;;;;1.27;0.40;;;;;;;18.00;53.68;97741.25;4870754;28;20194;-78
2022/05/26 05:36:17;;;;;;;1.48;0.45;;;;;;;18.09;54.60;97739.56;4852103;29;20181;-78
2022/05/26 05:38:43;;;;;;;1.50;0.43;;;;;;;18.28;53.41;97741.50;4836873;29;20537;-78
2022/05/26 05:41:09;;;;;;;1.40;0.35;;;;;;;18.32;52.87;97742.53;4867836;29;20244;-78
2022/05/26 05:43:35;;;;;;;3.10;1.42;;;;;;;18.40;53.86;97741.09;4851787;29;20202;-78
2022/05/26 05:46:01;;;;;;;1.40;0.60;;;;;;;18.32;53.83;97737.25;4853154;29;20255;-78
2022/05/26 05:48:27;;;;;;;2.00;0.70;;;;;;;18.42;53.41;97752.97;4848998;29;20181;-78
2022/05/26 05:50:52;;;;;;;2.50;0.60;;;;;;;18.38;53.53;97741.38;4868677;29;20178;-78
2022/05/26 05:53:18;;;;;;;0.63;0.30;;;;;;;18.33;53.22;97742.25;4870317;28;20199;-79
2022/05/26 05:55:44;;;;;;;1.30;0.60;;;;;;;18.38;53.17;97748.53;4886442;28;20362;-77
2022/05/26 05:58:11;;;;;;;4.18;0.63;;;;;;;18.44;53.62;97758.72;4859836;28;20204;-78
2022/05/26 06:00:37;;;;;;;2.30;0.50;;;;;;;18.26;53.93;97757.59;4872251;28;20619;-77
2022/05/26 06:03:03;;;;;;;1.30;0.70;;;;;;;18.42;53.88;97757.44;4904252;28;20199;-78
2022/05/26 06:05:29;;;;;;;2.03;0.40;;;;;;;18.49;53.94;97765.78;4887191;28;20157;-76
2022/05/26 06:07:55;;;;;;;1.00;0.50;;;;;;;18.47;52.97;97765.28;4856541;28;20206;-78
2022/05/26 06:10:20;;;;;;;1.88;0.70;;;;;;;18.61;53.06;97755.63;4855689;28;20278;-78
2022/05/26 06:12:46;;;;;;;1.80;0.70;;;;;;;18.71;52.87;97767.91;4855411;28;20203;-79
2022/05/26 06:15:12;;;;;;;1.58;0.60;;;;;;;18.67;53.51;97769.53;4870750;28;20186;-77
2022/05/26 06:17:38;;;;;;;0.88;0.65;;;;;;;18.73;52.68;97776.34;4856385;28;20243;-77
2022/05/26 06:20:05;;;;;;;0.60;0.40;;;;;;;18.78;52.77;97778.91;4871131;28;20446;-78
2022/05/26 06:22:31;;;;;;;1.98;0.88;;;;;;;18.78;52.57;97768.38;4855449;28;20333;-78
2022/05/26 06:24:56;;;;;;;1.60;0.60;;;;;;;18.74;51.91;97785.03;4871512;28;20191;-77
2022/05/26 06:30:10;;;;;;;2.13;0.50;;;;;;;18.86;52.43;97794.13;4868635;29;20170;-78
2022/05/26 06:38:20;;;;;;;1.55;0.70;;;;;;;19.06;52.02;97794.97;4857806;28;20287;-78
2022/05/26 06:40:46;;;;;;;2.00;0.40;;;;;;;19.10;52.66;97795.94;4870810;28;20200;-77
2022/05/26 06:43:14;;;;;;;1.63;0.52;;;;;;;19.07;53.35;97797.31;4888983;28;20169;-79
2022/05/26 06:45:40;;;;;;;2.03;0.65;;;;;;;19.13;52.93;97805.94;4870925;28;20641;-78
2022/05/26 06:48:06;;;;;;;2.03;0.68;;;;;;;19.16;51.77;97804.56;4871961;28;20195;-79
2022/05/26 06:50:31;;;;;;;1.55;0.63;;;;;;;19.15;52.08;97811.72;4871138;28;20208;-79
2022/05/26 06:52:57;;;;;;;1.77;0.70;;;;;;;19.11;52.17;97802.00;4868342;28;20192;-78
2022/05/26 06:55:22;;;;;;;0.90;0.60;;;;;;;19.21;52.12;97807.16;4868500;29;20242;-79
2022/05/26 06:57:48;;;;;;;1.35;0.50;;;;;;;19.36;50.94;97816.72;4877034;28;20242;-79
2022/05/26 07:00:15;;;;;;;1.17;0.70;;;;;;;19.35;51.87;97818.59;4869904;28;20426;-78
2022/05/26 07:02:41;;;;;;;0.93;0.70;;;;;;;19.31;51.38;97822.06;4853915;29;20650;-78
2022/05/26 07:05:08;;;;;;;0.63;0.60;;;;;;;19.30;51.85;97831.84;4838737;29;20686;-79
2022/05/26 07:07:35;;;;;;;1.45;1.00;;;;;;;19.18;52.29;97824.34;4852045;29;20654;-78
2022/05/26 07:10:02;;;;;;;2.38;0.63;;;;;;;19.38;52.32;97820.66;4852544;29;20204;-78
2022/05/26 07:12:27;;;;;;;0.93;0.60;;;;;;;19.49;51.95;97837.13;4852531;29;20378;-78
2022/05/26 07:14:53;;;;;;;3.00;0.88;;;;;;;19.49;51.20;97831.84;4870765;28;20342;-78
2022/05/26 07:17:19;;;;;;;3.38;0.68;;;;;;;19.67;51.03;97837.41;4872509;28;20188;-77
2022/05/26 07:19:45;;;;;;;1.63;0.60;;;;;;;19.57;51.98;97841.78;4870435;28;20211;-78
2022/05/26 07:22:11;;;;;;;2.45;1.15;;;;;;;19.67;51.60;97845.34;4854712;28;20270;-77
2022/05/26 07:24:37;;;;;;;2.17;0.60;;;;;;;19.71;50.62;97841.06;4871004;28;20203;-77
2022/05/26 07:27:02;;;;;;;1.67;0.70;;;;;;;19.69;51.29;97843.19;4870236;28;20287;-78
2022/05/26 07:29:29;;;;;;;1.50;0.70;;;;;;;19.65;51.38;97846.44;4854640;28;20097;-76
2022/05/26 07:31:54;;;;;;;0.70;0.60;;;;;;;19.64;52.02;97844.84;4854767;28;20220;-78
2022/05/26 07:34:20;;;;;;;2.53;0.98;;;;;;;19.60;52.11;97841.22;4870819;28;20529;-78
2022/05/26 07:42:16;;;;;;;1.75;0.70;;;;;;;19.55;51.87;97843.13;4877529;28;20283;-77
2022/05/26 07:44:43;;;;;;;1.30;0.80;;;;;;;19.59;51.05;97844.16;4874622;28;20455;-78
2022/05/26 07:47:09;;;;;;;2.92;0.82;;;;;;;19.58;51.34;97837.28;4875007;28;20320;-77
2022/05/26 07:49:41;;;;;;;1.90;0.80;;;;;;;19.57;50.93;97847.06;4873607;28;20204;-78
2022/05/26 07:52:07;;;;;;;2.25;0.73;;;;;;;19.65;50.54;97849.06;4857981;28;20169;-79
2022/05/26 07:54:32;;;;;;;2.45;1.00;;;;;;;19.82;50.47;97847.78;4873789;28;20661;-78
2022/05/26 07:56:58;;;;;;;0.93;0.80;;;;;;;19.80;50.86;97848.06;4891511;28;20211;-78
2022/05/26 07:59:23;;;;;;;2.03;0.80;;;;;;;19.85;50.46;97857.78;4859983;28;20246;-78
2022/05/26 08:01:49;;;;;;;0.90;0.70;;;;;;;19.83;51.42;97857.28;4867694;28;20255;-78
2022/05/26 08:04:16;;;;;;;0.65;0.50;;;;;;;19.83;51.05;97862.56;4876882;28;20262;-78
2022/05/26 08:06:45;;;;;;;2.13;0.68;;;;;;;19.66;52.87;97860.41;4892485;28;20357;-80
2022/05/26 08:09:11;;;;;;;0.73;0.70;;;;;;;19.87;51.82;97868.06;4892994;28;20454;-77
2022/05/26 08:11:36;;;;;;;1.42;0.98;;;;;;;19.91;50.68;97877.78;4889522;28;20617;-78
2022/05/26 08:14:02;;;;;;;1.00;0.80;;;;;;;19.80;51.13;97871.06;4873126;28;20279;-78
2022/05/26 08:16:27;;;;;;;1.30;0.80;;;;;;;19.70;51.69;97879.13;4858266;28;20211;-78
2022/05/26 08:18:53;;;;;;;1.75;1.25;;;;;;;19.71;51.77;97878.06;4872715;28;20192;-77
2022/05/26 08:21:18;;;;;;;1.17;0.90;;;;;;;19.71;51.33;97875.41;4891889;28;20117;-78
2022/05/26 08:23:44;;;;;;;0.90;0.73;;;;;;;19.68;51.28;97881.25;4869863;28;20177;-77
2022/05/26 08:26:10;;;;;;;1.40;1.08;;;;;;;19.64;51.43;97879.19;4872799;28;20721;-79
2022/05/26 08:28:35;;;;;;;4.07;1.35;;;;;;;19.73;51.22;97891.75;4873740;28;20250;-78
2022/05/26 08:31:01;;;;;;;1.42;0.88;;;;;;;19.69;51.56;97891.56;4891247;28;20196;-78
2022/05/26 08:33:27;;;;;;;2.03;1.10;;;;;;;19.64;51.46;97892.41;4857171;28;20342;-78
2022/05/26 08:36:21;;;;;;;2.17;0.80;;;;;;;19.57;51.34;97893.81;4858209;28;20650;-79
2022/05/26 08:38:47;;;;;;;1.33;0.93;;;;;;;19.79;52.50;97891.44;4861780;28;20937;-78
2022/05/26 08:41:24;;;;;;;1.95;0.90;;;;;;;19.60;52.78;97894.06;4891426;28;20242;-79
2022/05/26 08:44:13;;;;;;;1.40;1.00;;;;;;;19.93;51.35;97901.25;4891709;28;20183;-79
2022/05/26 08:47:01;;;;;;;1.52;0.90;;;;;;;19.98;51.79;97899.34;4909630;28;20207;-77
2022/05/26 08:49:42;;;;;;;3.30;1.42;;;;;;;20.05;50.89;97906.91;4887625;28;20204;-78
2022/05/26 08:52:10;;;;;;;2.65;1.60;;;;;;;20.26;49.39;97902.09;4872216;28;20177;-78
2022/05/26 08:55:01;;;;;;;1.63;1.30;;;;;;;20.18;49.67;97911.44;4890233;28;20731;-78
2022/05/26 08:57:41;;;;;;;1.48;1.17;;;;;;;20.19;50.31;97918.31;4893252;28;20207;-78
2022/05/26 09:00:18;;;;;;;2.38;1.40;;;;;;;19.89;52.07;97916.91;4892214;28;20276;-79
2022/05/26 09:02:44;;;;;;;2.40;1.50;;;;;;;20.17;52.13;97914.41;4853498;29;20718;-78
2022/05/26 09:05:11;;;;;;;1.42;1.27;;;;;;;20.14;51.69;97922.91;4869485;28;20204;-78
2022/05/26 09:13:13;;;;;;;2.85;0.98;;;;;;;20.27;49.97;97935.41;4871695;29;20649;-77
2022/05/26 09:15:40;;;;;;;1.45;0.70;;;;;;;20.34;50.09;97932.34;4854071;29;20139;-77
2022/05/26 09:18:17;;;;;;;1.73;0.82;;;;;;;20.14;51.70;97938.78;4854966;28;20303;-78
2022/05/26 09:20:44;;;;;;;1.30;1.20;;;;;;;20.39;50.89;97938.38;4863785;28;20126;-78
2022/05/26 09:23:11;;;;;;;1.90;1.05;;;;;;;20.39;50.47;97935.72;4873336;28;20646;-77
2022/05/26 09:25:48;;;;;;;2.75;1.33;;;;;;;20.26;50.61;97941.75;4889042;28;20728;-78
2022/05/26 09:28:26;;;;;;;2.08;1.20;;;;;;;20.21;52.56;97944.47;4884958;28;20195;-78
2022/05/26 09:30:52;;;;;;;3.25;1.08;;;;;;;20.54;51.06;97936.53;4860327;28;20122;-78
2022/05/26 09:33:20;;;;;;;1.58;1.02;;;;;;;20.39;50.83;97938.38;4891241;28;20730;-78
2022/05/26 09:35:46;;;;;;;2.47;1.50;;;;;;;20.63;50.43;97929.56;4872732;28;20212;-78
2022/05/26 09:38:19;;;;;;;1.05;0.93;;;;;;;20.43;50.44;97932.50;4869743;28;20105;-78
2022/05/26 09:40:46;;;;;;;1.00;0.90;;;;;;;20.61;49.91;97934.28;4889933;28;20206;-78
2022/05/26 09:43:23;;;;;;;1.17;1.08;;;;;;;20.31;49.84;97933.72;4878849;28;20177;-78
2022/05/26 09:45:51;;;;;;;2.13;1.10;;;;;;;20.43;49.00;97935.16;4861943;28;20577;-78
2022/05/26 09:48:24;;;;;;;1.48;0.90;;;;;;;20.33;47.73;97934.22;4869771;28;20199;-77
2022/05/26 09:51:05;;;;;;;1.20;1.10;;;;;;;20.22;49.19;97951.34;4853669;28;20279;-79
2022/05/26 09:53:40;;;;;;;1.75;0.98;;;;;;;20.16;51.11;97955.91;4868475;28;20283;-78
2022/05/26 09:56:07;;;;;;;1.33;1.05;;;;;;;20.12;49.63;97948.84;4867137;28;20302;-78
2022/05/26 09:58:43;;;;;;;0.90;0.90;;;;;;;19.99;48.93;97953.00;4865626;28;20294;-78
2022/05/26 10:01:20;;;;;;;1.13;0.70;;;;;;;20.06;48.34;97955.28;4866948;28;20229;-77
2022/05/26 10:04:20;;;;;;;1.35;0.60;;;;;;;19.95;49.83;97957.28;4882692;28;20724;-77
2022/05/26 10:07:05;;;;;;;1.45;0.63;;;;;;;19.99;48.99;97956.41;4871355;28;20207;-77
2022/05/26 10:09:40;;;;;;;0.82;0.60;;;;;;;19.90;49.30;97957.34;4848194;29;20773;-78
2022/05/26 10:12:08;;;;;;;1.08;0.68;;;;;;;19.96;48.98;97954.38;4847939;29;20616;-78
2022/05/26 10:15:00;;;;;;;1.10;0.50;;;;;;;19.88;49.65;97965.56;4865251;29;20252;-79
2022/05/26 10:17:36;;;;;;;1.20;1.00;;;;;;;19.77;49.22;97962.25;4864869;29;20722;-78
2022/05/26 10:20:10;;;;;;;1.67;1.10;;;;;;;19.82;49.34;97959.56;4872010;28;20596;-77
2022/05/26 10:23:01;;;;;;;1.88;1.20;;;;;;;19.98;48.86;97969.91;4884623;28;20705;-78
2022/05/26 10:26:03;;;;;;;1.30;0.90;;;;;;;19.97;48.27;97966.50;4884603;28;20212;-78
2022/05/26 10:28:57;;;;;;;2.60;1.20;;;;;;;19.94;46.57;97955.72;4867613;28;20194;-78
2022/05/26 10:31:41;;;;;;;1.60;0.90;;;;;;;20.18;47.31;97968.84;4884377;28;20201;-78
2022/05/26 10:34:27;;;;;;;2.38;0.93;;;;;;;20.23;46.01;97966.13;4867218;28;20203;-78
2022/05/26 10:37:07;;;;;;;1.40;1.02;;;;;;;20.33;45.82;97967.84;4854750;28;20192;-77
2022/05/26 10:39:42;;;;;;;1.65;0.90;;;;;;;20.45;46.49;97967.38;4867173;28;20288;-77
2022/05/26 10:42:15;;;;;;;1.25;0.77;;;;;;;20.76;47.81;97960.53;4866332;28;20278;-77
2022/05/26 10:44:52;;;;;;;3.58;1.00;;;;;;;21.14;47.09;97960.38;4866912;28;20722;-79
2022/05/26 10:47:23;;;;;;;1.50;0.80;;;;;;;22.01;43.61;97954.41;4862510;28;20641;-78
2022/05/26 10:49:55;;;;;;;1.15;0.80;;;;;;;22.00;42.79;97953.63;4864956;28;20181;-77
2022/05/26 10:52:34;;;;;;;1.17;0.70;;;;;;;21.70;42.29;97955.06;4874452;28;20208;-79
2022/05/26 10:55:10;;;;;;;2.08;0.90;;;;;;;21.51;43.47;97952.56;4873347;28;20217;-78
2022/05/26 10:57:43;;;;;;;1.75;0.80;;;;;;;21.32;43.99;97955.28;4860222;28;20224;-77
2022/05/26 11:00:22;;;;;;;1.85;0.85;;;;;;;21.38;44.97;97959.38;4852331;28;20239;-79
2022/05/26 11:02:53;;;;;;;2.30;0.90;;;;;;;21.42;44.28;97954.28;4866877;28;20299;-77
2022/05/26 11:05:29;;;;;;;1.23;0.88;;;;;;;21.36;43.92;97961.56;4866678;28;20291;-78
2022/05/26 11:08:04;;;;;;;1.48;0.70;;;;;;;21.30;46.24;97962.72;4867409;28;20659;-78
2022/05/26 11:10:54;;;;;;;1.10;0.70;;;;;;;21.14;46.67;97970.19;4866835;28;20290;-78
2022/05/26 11:13:44;;;;;;;1.77;0.75;;;;;;;21.21;44.99;97965.28;4839577;29;20738;-78
2022/05/26 11:19:23;;;;;;;1.42;0.85;;;;;;;21.24;43.29;97954.09;4888800;28;20317;-78
2022/05/26 11:21:51;;;;;;;2.17;1.00;;;;;;;21.59;42.90;97953.69;4852472;29;20223;-76
2022/05/26 11:24:16;;;;;;;2.20;0.68;;;;;;;21.53;44.79;97955.69;4851093;28;20722;-77
2022/05/26 11:26:47;;;;;;;1.25;0.80;;;;;;;21.48;42.63;97947.84;4854312;28;20248;-77
2022/05/26 11:29:34;;;;;;;2.00;0.90;;;;;;;21.57;42.60;97951.34;4866490;28;20243;-78
2022/05/26 11:38:00;;;;;;;2.40;1.05;;;;;;;21.91;42.18;97944.03;4856355;29;20390;-78
2022/05/26 11:40:33;;;;;;;2.75;1.42;;;;;;;22.03;44.68;97939.75;4859284;28;20661;-77
2022/05/26 11:42:59;;;;;;;4.20;1.10;;;;;;;22.35;44.79;97945.16;4873816;28;20337;-77
2022/05/26 11:45:35;;;;;;;2.33;1.45;;;;;;;22.05;41.18;97939.44;4859505;28;20255;-79
2022/05/26 11:48:03;;;;;;;1.00;0.85;;;;;;;22.22;40.55;97944.88;4875924;28;20035;-77
2022/05/26 11:50:47;;;;;;;1.40;1.02;;;;;;;22.53;42.32;97938.06;4843573;28;20101;-77
2022/05/26 11:53:34;;;;;;;3.42;1.20;;;;;;;22.68;37.89;97947.53;4874027;28;20587;-78
2022/05/26 11:56:22;;;;;;;1.95;1.05;;;;;;;22.91;35.95;97945.59;4890510;28;20319;-79
2022/05/26 11:59:17;;;;;;;3.15;1.00;;;;;;;22.91;38.09;97943.75;4872507;29;20205;-78
2022/05/26 12:01:46;;;;;;;0.73;0.70;;;;;;;23.28;36.24;97941.69;4859198;28;20338;-79
2022/05/26 12:04:30;;;;;;;1.30;0.70;;;;;;;23.49;35.63;97946.44;4891055;28;20169;-77
2022/05/26 12:07:17;;;;;;;2.05;1.10;;;;;;;23.64;36.05;97938.00;4878199;28;20074;-79
2022/05/26 12:09:46;;;;;;;2.03;0.90;;;;;;;23.49;34.74;97938.47;4890307;28;20356;-77
2022/05/26 12:12:17;;;;;;;1.45;0.70;;;;;;;22.95;36.05;97934.06;4860276;28;20127;-78
2022/05/26 12:15:03;;;;;;;2.20;0.82;;;;;;;22.71;37.48;97941.63;4891789;28;20275;-77
2022/05/26 12:17:41;;;;;;;;;;;;;;;22.59;37.37;97937.66;4874751;28;20622;-78
2022/05/26 12:20:09;;;;;;;1.40;1.10;;;;;;;22.65;38.84;97924.25;4843199;28;20098;-77
2022/05/26 12:22:40;;;;;;;1.38;1.23;;;;;;;22.76;37.49;97925.56;4874642;28;20643;-78
2022/05/26 12:25:25;;;;;;;2.35;1.70;;;;;;;22.85;37.04;97944.19;4891401;28;20202;-77
2022/05/26 12:27:59;;;;;;;2.42;0.98;;;;;;;22.53;37.29;97933.53;4890448;28;20340;-77
2022/05/26 12:30:33;;;;;;;2.42;0.80;;;;;;;22.24;37.58;97937.41;4859360;28;20279;-77
2022/05/26 12:33:00;;;;;;;1.10;0.90;;;;;;;22.54;37.81;97939.66;4873684;28;20283;-79